createdAt,value
2019-05-11T00:02:09.021Z,59.00
2019-05-11T00:04:39.185Z,59.16
2019-05-11T00:07:09.082Z,58.96
2019-05-11T00:09:39.172Z,59.00
2019-05-11T00:12:09.209Z,59.40
2019-05-11T00:14:39.083Z,60.05
2019-05-11T00:17:09.121Z,59.72
2019-05-11T00:19:39.008Z,59.73
2019-05-11T00:22:08.884Z,59.35
2019-05-11T00:24:38.876Z,58.78
2019-05-11T00:27:08.810Z,59.21
2019-05-11T00:29:38.790Z,59.67
2019-05-11T00:32:08.691Z,60.77
2019-05-11T00:34:38.565Z,60.66
2019-05-11T00:37:08.440Z,59.72
2019-05-11T00:39:38.303Z,60.10
2019-05-11T00:42:08.217Z,60.51
2019-05-11T00:44:38.151Z,61.17
2019-05-11T00:47:08.092Z,61.74
2019-05-11T00:49:37.918Z,61.62
2019-05-11T00:52:07.861Z,60.87
2019-05-11T00:54:37.808Z,61.22
2019-05-11T00:57:07.807Z,60.95
2019-05-11T00:59:37.720Z,60.90
2019-05-11T01:02:07.585Z,60.26
2019-05-11T01:04:37.513Z,61.22
2019-05-11T01:07:07.414Z,60.39
2019-05-11T01:09:37.262Z,60.69
2019-05-11T01:12:07.144Z,60.91
2019-05-11T01:14:37.310Z,60.17
2019-05-11T01:17:07.183Z,60.83
2019-05-11T01:19:37.449Z,60.52
2019-05-11T01:22:07.321Z,60.84
2019-05-11T01:24:37.188Z,61.53
2019-05-11T01:27:07.157Z,62.41
2019-05-11T01:29:37.052Z,62.36
2019-05-11T01:32:06.925Z,62.31
2019-05-11T01:34:36.847Z,62.06
2019-05-11T01:37:06.850Z,62.52
2019-05-11T01:39:36.731Z,62.60
2019-05-11T01:42:06.646Z,62.70
2019-05-11T01:44:36.748Z,62.33
2019-05-11T01:47:06.684Z,61.30
2019-05-11T01:49:36.594Z,64.39
2019-05-11T01:52:06.544Z,64.12
2019-05-11T01:54:36.525Z,64.42
2019-05-11T01:57:06.401Z,62.87
2019-05-11T01:59:36.350Z,64.08
2019-05-11T02:02:06.283Z,65.77
2019-05-11T02:04:36.164Z,64.32
2019-05-11T02:07:06.314Z,64.61
2019-05-11T02:09:36.168Z,64.49
2019-05-11T02:12:06.065Z,64.16
2019-05-11T02:14:35.929Z,63.64
2019-05-11T02:17:05.892Z,63.69
2019-05-11T02:19:35.773Z,63.50
2019-05-11T02:22:05.677Z,65.33
2019-05-11T02:24:35.581Z,63.79
2019-05-11T02:27:05.463Z,62.82
2019-05-11T02:29:35.332Z,63.52
2019-05-11T02:32:05.208Z,63.77
2019-05-11T02:34:35.067Z,62.86
2019-05-11T02:37:05.032Z,62.73
2019-05-11T02:39:34.916Z,62.35
2019-05-11T02:42:04.985Z,62.39
2019-05-11T02:44:34.850Z,61.58
2019-05-11T02:47:04.816Z,60.98
2019-05-11T02:49:34.670Z,63.19
2019-05-11T02:52:04.804Z,63.85
2019-05-11T02:54:34.815Z,62.66
2019-05-11T02:57:04.695Z,62.97
2019-05-11T02:59:34.610Z,62.80
2019-05-11T03:02:04.483Z,62.04
2019-05-11T03:04:34.363Z,62.84
2019-05-11T03:07:04.245Z,61.88
2019-05-11T03:09:34.133Z,61.42
2019-05-11T03:12:04.158Z,61.11
2019-05-11T03:14:34.062Z,61.73
2019-05-11T03:17:19.920Z,66.94
2019-05-11T03:19:49.787Z,63.67
2019-05-11T03:22:19.670Z,62.72
2019-05-11T03:24:49.662Z,61.46
2019-05-11T03:27:19.558Z,61.53
2019-05-11T03:29:49.435Z,61.67
2019-05-11T03:32:19.303Z,61.11
2019-05-11T03:34:49.182Z,62.53
2019-05-11T03:37:19.043Z,64.29
2019-05-11T03:39:48.929Z,63.46
2019-05-11T03:42:18.799Z,63.79
2019-05-11T03:44:48.713Z,64.16
2019-05-11T03:47:18.571Z,64.33
2019-05-11T03:49:48.453Z,63.76
2019-05-11T03:52:18.354Z,63.49
2019-05-11T03:54:48.236Z,61.95
2019-05-11T03:57:18.121Z,62.53
2019-05-11T03:59:48.016Z,62.52
2019-05-11T04:02:18.019Z,63.61
2019-05-11T04:04:47.923Z,63.80
2019-05-11T04:07:17.799Z,61.61
2019-05-11T04:09:47.691Z,62.54
2019-05-11T04:12:33.477Z,63.40
2019-05-11T04:14:49.156Z,62.63
2019-05-11T04:17:21.681Z,62.22
2019-05-11T04:19:52.294Z,63.68
2019-05-11T04:22:22.174Z,62.72
2019-05-11T04:24:52.093Z,61.52
2019-05-11T04:27:21.968Z,62.38
2019-05-11T04:29:51.888Z,60.51
2019-05-11T04:32:21.757Z,62.31
2019-05-11T04:34:51.615Z,60.62
2019-05-11T04:37:21.595Z,60.81
2019-05-11T04:39:51.485Z,64.12
2019-05-11T04:42:21.423Z,63.70
2019-05-11T04:44:52.473Z,63.09
2019-05-11T04:47:22.542Z,65.83
2019-05-11T04:49:52.509Z,65.10
2019-05-11T04:52:22.382Z,64.04
2019-05-11T04:54:52.269Z,64.65
2019-05-11T04:57:22.162Z,62.94
2019-05-11T04:59:52.063Z,62.11
2019-05-11T05:02:21.940Z,61.56
2019-05-11T05:04:51.797Z,63.16
2019-05-11T05:07:21.645Z,63.11
2019-05-11T05:09:51.593Z,62.91
2019-05-11T05:12:21.464Z,62.21
2019-05-11T05:14:51.362Z,61.61
2019-05-11T05:17:21.249Z,60.37
2019-05-11T05:19:51.129Z,60.20
2019-05-11T05:22:21.015Z,58.58
2019-05-11T05:24:50.983Z,57.79
2019-05-11T05:27:20.861Z,59.16
2019-05-11T05:29:50.745Z,57.97
2019-05-11T05:32:20.607Z,59.69
2019-05-11T05:34:50.514Z,58.62
2019-05-11T05:37:20.385Z,58.51
2019-05-11T05:39:50.246Z,59.06
2019-05-11T05:42:20.119Z,55.42
2019-05-11T05:44:50.009Z,55.67
2019-05-11T05:47:19.944Z,55.54
2019-05-11T05:49:49.829Z,55.38
2019-05-11T05:52:19.693Z,51.37
2019-05-11T05:54:49.596Z,50.53
2019-05-11T05:57:19.516Z,52.39
2019-05-11T05:59:49.404Z,56.26
2019-05-11T06:02:19.338Z,58.10
2019-05-11T06:04:49.231Z,56.59
2019-05-11T06:07:19.127Z,54.14
2019-05-11T06:09:49.329Z,53.26
2019-05-11T06:12:19.274Z,54.08
2019-05-11T06:14:49.168Z,53.90
2019-05-11T06:17:19.053Z,52.46
2019-05-11T06:19:48.959Z,52.63
2019-05-11T06:22:18.852Z,53.91
2019-05-11T06:24:48.735Z,53.24
2019-05-11T06:27:18.612Z,54.19
2019-05-11T06:29:48.517Z,53.42
2019-05-11T06:32:18.356Z,53.26
2019-05-11T06:34:48.236Z,52.50
2019-05-11T06:37:18.132Z,53.67
2019-05-11T06:39:47.996Z,54.03
2019-05-11T06:42:17.876Z,52.79
2019-05-11T06:44:47.750Z,54.86
2019-05-11T06:47:17.650Z,53.68
2019-05-11T06:49:47.518Z,50.51
2019-05-11T06:52:17.402Z,53.86
2019-05-11T06:54:47.289Z,52.33
2019-05-11T06:57:17.167Z,53.30
2019-05-11T06:59:47.038Z,51.95
2019-05-11T07:02:16.935Z,53.24
2019-05-11T07:04:46.815Z,51.87
2019-05-11T07:07:16.700Z,51.13
2019-05-11T07:09:46.775Z,51.82
2019-05-11T07:12:16.758Z,52.81
2019-05-11T07:14:46.841Z,50.95
2019-05-11T07:17:16.941Z,49.43
2019-05-11T07:19:47.683Z,52.07
2019-05-11T07:22:17.676Z,53.10
2019-05-11T07:24:47.537Z,52.61
2019-05-11T07:27:17.470Z,53.08
2019-05-11T07:29:47.409Z,52.62
2019-05-11T07:32:25.076Z,52.63
2019-05-11T07:34:49.211Z,52.75
2019-05-11T07:37:19.096Z,52.18
2019-05-11T07:39:49.079Z,51.21
2019-05-11T07:42:19.234Z,49.64
2019-05-11T07:44:49.098Z,49.38
2019-05-11T07:47:18.986Z,50.01
2019-05-11T07:49:49.002Z,49.73
2019-05-11T07:52:19.182Z,49.37
2019-05-11T07:54:52.800Z,49.87
2019-05-11T07:57:20.726Z,49.95
2019-05-11T07:59:50.918Z,48.26
2019-05-11T08:02:20.872Z,50.14
2019-05-11T08:04:50.856Z,50.05
2019-05-11T08:07:20.775Z,48.63
2019-05-11T08:09:50.722Z,48.34
2019-05-11T08:12:20.655Z,45.94
2019-05-11T08:15:00.856Z,46.22
2019-05-11T08:17:22.223Z,47.20
2019-05-11T08:19:52.194Z,48.38
2019-05-11T08:22:22.964Z,47.17
2019-05-11T08:24:53.277Z,45.23
2019-05-11T08:27:23.199Z,45.09
2019-05-11T08:29:53.204Z,44.72
2019-05-11T08:32:23.108Z,45.17
2019-05-11T08:34:53.034Z,45.09
2019-05-11T08:37:22.941Z,45.22
2019-05-11T08:39:52.918Z,43.68
2019-05-11T08:42:22.855Z,42.36
2019-05-11T08:44:52.759Z,43.73
2019-05-11T08:47:22.661Z,43.69
2019-05-11T08:49:52.678Z,43.96
2019-05-11T08:52:22.619Z,43.96
2019-05-11T08:54:52.570Z,49.65
2019-05-11T08:57:22.482Z,44.39
2019-05-11T08:59:52.718Z,44.37
2019-05-11T09:02:22.734Z,43.89
2019-05-11T09:04:52.597Z,44.40
2019-05-11T09:07:22.514Z,44.76
2019-05-11T09:09:52.411Z,45.05
2019-05-11T09:12:22.319Z,44.49
2019-05-11T09:14:52.241Z,44.07
2019-05-11T09:17:22.117Z,42.35
2019-05-11T09:19:52.050Z,42.25
2019-05-11T09:22:21.971Z,43.85
2019-05-11T09:24:51.920Z,42.79
2019-05-11T09:27:21.839Z,42.46
2019-05-11T09:29:51.783Z,42.48
2019-05-11T09:32:21.684Z,41.98
2019-05-11T09:34:51.610Z,41.75
2019-05-11T09:37:21.517Z,41.38
2019-05-11T09:39:51.469Z,43.65
2019-05-11T09:42:21.627Z,42.86
2019-05-11T09:44:51.568Z,42.78
2019-05-11T09:47:21.454Z,41.38
2019-05-11T09:49:51.600Z,40.20
2019-05-11T09:52:21.513Z,41.88
2019-05-11T09:54:51.784Z,40.70
2019-05-11T09:57:21.874Z,40.66
2019-05-11T09:59:51.779Z,41.46
2019-05-11T10:02:21.676Z,42.49
2019-05-11T10:04:51.586Z,41.01
2019-05-11T10:07:21.485Z,42.32
2019-05-11T10:09:51.436Z,41.92
2019-05-11T10:12:21.370Z,42.62
2019-05-11T10:14:51.305Z,41.42
2019-05-11T10:17:21.201Z,41.88
2019-05-11T10:19:51.127Z,42.84
2019-05-11T10:22:21.043Z,42.28
2019-05-11T10:24:50.963Z,42.83
2019-05-11T10:27:20.910Z,42.03
2019-05-11T10:29:50.826Z,42.23
2019-05-11T10:32:20.729Z,41.72
2019-05-11T10:34:50.662Z,43.56
2019-05-11T10:37:20.590Z,42.73
2019-05-11T10:39:50.535Z,42.31
2019-05-11T10:42:20.483Z,41.65
2019-05-11T10:44:50.618Z,41.13
2019-05-11T10:47:20.516Z,42.24
2019-05-11T10:49:50.521Z,43.22
2019-05-11T10:52:20.421Z,43.09
2019-05-11T10:54:50.340Z,41.59
2019-05-11T10:57:20.249Z,41.04
2019-05-11T10:59:50.203Z,42.64
2019-05-11T11:02:20.105Z,43.42
2019-05-11T11:04:50.026Z,41.80
2019-05-11T11:07:19.958Z,42.46
2019-05-11T11:09:49.889Z,42.84
2019-05-11T11:12:19.824Z,43.00
2019-05-11T11:14:49.778Z,43.67
2019-05-11T11:17:19.750Z,44.03
2019-05-11T11:19:49.650Z,44.12
2019-05-11T11:22:36.221Z,42.28
2019-05-11T11:24:51.272Z,43.58
2019-05-11T11:27:21.249Z,44.22
2019-05-11T11:29:51.209Z,44.68
2019-05-11T11:32:21.148Z,42.49
2019-05-11T11:34:51.097Z,43.59
2019-05-11T11:37:21.125Z,44.83
2019-05-11T11:39:51.040Z,43.28
2019-05-11T11:42:20.979Z,42.68
2019-05-11T11:44:50.892Z,44.63
2019-05-11T11:47:21.699Z,44.83
2019-05-11T11:49:51.852Z,44.36
2019-05-11T11:52:21.734Z,45.38
2019-05-11T11:54:51.803Z,45.23
2019-05-11T11:57:21.693Z,45.17
2019-05-11T11:59:51.630Z,43.26
2019-05-11T12:02:21.556Z,43.43
2019-05-11T12:04:51.466Z,44.93
2019-05-11T12:07:21.370Z,44.40
2019-05-11T12:09:51.279Z,43.93
2019-05-11T12:12:21.231Z,44.45
2019-05-11T12:14:51.151Z,44.86
2019-05-11T12:17:21.082Z,45.50
2019-05-11T12:19:50.969Z,46.15
2019-05-11T12:22:20.913Z,46.28
2019-05-11T12:24:50.820Z,45.24
2019-05-11T12:27:20.752Z,48.14
2019-05-11T12:29:50.663Z,48.79
2019-05-11T12:32:27.656Z,47.90
2019-05-11T12:34:58.797Z,48.33
2019-05-11T12:37:28.705Z,48.29
2019-05-11T12:39:58.593Z,50.21
2019-05-11T12:42:28.533Z,49.89
2019-05-11T12:44:58.445Z,49.75
2019-05-11T12:47:28.493Z,46.84
2019-05-11T12:49:58.620Z,48.70
2019-05-11T12:52:28.627Z,48.59
2019-05-11T12:54:58.603Z,49.08
2019-05-11T12:57:28.533Z,49.84
2019-05-11T12:59:58.543Z,50.71
2019-05-11T13:02:28.458Z,49.92
2019-05-11T13:04:58.607Z,49.09
2019-05-11T13:07:28.591Z,48.51
2019-05-11T13:09:58.545Z,49.15
2019-05-11T13:12:28.451Z,50.12
2019-05-11T13:14:58.354Z,51.05
2019-05-11T13:17:37.430Z,52.90
2019-05-11T13:19:59.940Z,51.69
2019-05-11T13:22:29.873Z,53.15
2019-05-11T13:24:59.789Z,51.82
2019-05-11T13:27:30.518Z,52.48
2019-05-11T13:30:00.502Z,53.64
2019-05-11T13:32:30.411Z,51.96
2019-05-11T13:35:00.342Z,52.18
2019-05-11T13:37:30.246Z,51.96
2019-05-11T13:40:00.120Z,52.48
2019-05-11T13:42:30.035Z,49.22
2019-05-11T13:44:59.936Z,52.32
2019-05-11T13:47:29.850Z,51.38
2019-05-11T13:49:59.747Z,53.05
2019-05-11T13:52:29.664Z,53.52
2019-05-11T13:54:59.582Z,53.41
2019-05-11T13:57:29.498Z,52.88
2019-05-11T13:59:59.560Z,53.11
2019-05-11T14:02:29.459Z,50.34
2019-05-11T14:04:59.376Z,50.40
2019-05-11T14:07:29.335Z,51.77
2019-05-11T14:09:59.298Z,51.16
2019-05-11T14:12:29.191Z,49.95
2019-05-11T14:14:59.285Z,51.88
2019-05-11T14:17:31.825Z,52.09
2019-05-11T14:20:00.783Z,51.82
2019-05-11T14:22:30.956Z,52.67
2019-05-11T14:25:00.823Z,51.60
2019-05-11T14:27:30.702Z,53.09
2019-05-11T14:30:03.949Z,52.82
2019-05-11T14:32:32.193Z,53.41
2019-05-11T14:35:02.075Z,53.86
2019-05-11T14:37:31.967Z,54.37
2019-05-11T14:40:01.893Z,53.99
2019-05-11T14:42:31.820Z,53.82
2019-05-11T14:45:01.715Z,53.95
2019-05-11T14:47:31.659Z,53.02
2019-05-11T14:50:01.565Z,53.26
2019-05-11T14:52:31.433Z,54.14
2019-05-11T14:55:01.596Z,53.44
2019-05-11T14:57:31.482Z,54.33
2019-05-11T15:00:01.381Z,55.03
2019-05-11T15:02:49.398Z,56.17
2019-05-11T15:05:19.821Z,56.75
2019-05-11T15:07:52.406Z,58.74
2019-05-11T15:10:22.945Z,57.97
2019-05-11T15:12:52.897Z,58.79
2019-05-11T15:15:24.307Z,58.52
2019-05-11T15:17:54.191Z,60.28
2019-05-11T15:20:24.358Z,59.41
2019-05-11T15:22:54.269Z,60.56
2019-05-11T15:25:24.131Z,61.20
2019-05-11T15:27:54.158Z,63.03
2019-05-11T15:30:24.393Z,62.67
2019-05-11T15:32:54.263Z,62.40
2019-05-11T15:35:24.243Z,63.03
2019-05-11T15:37:54.118Z,62.95
2019-05-11T15:40:24.005Z,62.23
2019-05-11T15:42:53.992Z,62.26
2019-05-11T15:45:24.104Z,62.00
2019-05-11T15:47:54.028Z,62.89
2019-05-11T15:50:24.154Z,61.77
2019-05-11T15:52:54.772Z,62.68
2019-05-11T15:55:25.010Z,62.80
2019-05-11T15:57:55.060Z,64.96
2019-05-11T16:00:25.124Z,63.61
2019-05-11T16:02:55.006Z,63.62
2019-05-11T16:05:24.904Z,62.87
2019-05-11T16:07:55.957Z,63.88
2019-05-11T16:10:27.729Z,64.80
2019-05-11T16:12:58.588Z,65.03
2019-05-11T16:15:28.656Z,66.16
2019-05-11T16:17:58.529Z,66.95
2019-05-11T16:20:28.676Z,65.96
2019-05-11T16:22:58.581Z,66.18
2019-05-11T16:25:28.480Z,65.81
2019-05-11T16:27:58.399Z,66.58
2019-05-11T16:30:28.898Z,65.65
2019-05-11T16:32:58.815Z,66.29
2019-05-11T16:35:28.701Z,67.09
2019-05-11T16:37:59.395Z,67.28
2019-05-11T16:40:29.713Z,66.45
2019-05-11T16:42:59.608Z,65.41
2019-05-11T16:45:29.497Z,65.78
2019-05-11T16:47:59.400Z,65.40
2019-05-11T16:50:29.343Z,65.90
2019-05-11T16:52:59.226Z,65.70
2019-05-11T16:55:29.136Z,66.10
2019-05-11T16:58:04.654Z,65.81
2019-05-11T17:00:34.648Z,66.20
2019-05-11T17:03:04.703Z,67.18
2019-05-11T17:05:34.695Z,65.37
2019-05-11T17:08:04.634Z,64.44
2019-05-11T17:10:34.531Z,64.05
2019-05-11T17:13:04.435Z,63.35
2019-05-11T17:15:34.340Z,63.41
2019-05-11T17:18:04.211Z,63.60
2019-05-11T17:20:34.140Z,63.55
2019-05-11T17:23:04.117Z,61.92
2019-05-11T17:25:33.985Z,62.54
2019-05-11T17:28:06.765Z,62.86
2019-05-11T17:30:38.486Z,61.96
2019-05-11T17:33:08.717Z,61.32
2019-05-11T17:35:38.832Z,60.15
2019-05-11T17:38:08.743Z,60.08
2019-05-11T17:40:38.614Z,60.41
2019-05-11T17:43:09.201Z,60.76
2019-05-11T17:45:39.188Z,60.62
2019-05-11T17:48:09.067Z,61.07
2019-05-11T17:50:39.024Z,60.62
2019-05-11T17:53:09.000Z,60.15
2019-05-11T17:55:38.885Z,61.24
2019-05-11T17:58:08.945Z,62.24
2019-05-11T18:00:39.375Z,62.04
2019-05-11T18:03:11.356Z,61.79
2019-05-11T18:05:41.170Z,62.03
2019-05-11T18:08:11.104Z,63.71
2019-05-11T18:10:41.249Z,64.72
2019-05-11T18:13:11.118Z,65.27
2019-05-11T18:15:41.097Z,65.18
2019-05-11T18:18:10.914Z,66.19
2019-05-11T18:20:40.845Z,66.70
2019-05-11T18:23:10.712Z,65.49
2019-05-11T18:25:40.717Z,66.06
2019-05-11T18:28:13.849Z,65.62
2019-05-11T18:30:42.590Z,65.17
2019-05-11T18:33:12.775Z,64.84
2019-05-11T18:35:42.660Z,62.52
2019-05-11T18:38:13.273Z,62.78
2019-05-11T18:40:43.281Z,63.28
2019-05-11T18:43:13.165Z,62.78
2019-05-11T18:45:43.152Z,62.57
2019-05-11T18:48:13.023Z,62.13
2019-05-11T18:50:42.945Z,61.99
2019-05-11T18:53:12.837Z,60.77
2019-05-11T18:55:42.725Z,59.69
2019-05-11T18:58:12.652Z,60.16
2019-05-11T19:00:42.574Z,59.83
2019-05-11T19:03:12.466Z,59.47
2019-05-11T19:05:42.346Z,59.43
2019-05-11T19:08:12.246Z,59.28
2019-05-11T19:10:42.174Z,58.56
2019-05-11T19:13:12.250Z,57.78
2019-05-11T19:15:42.270Z,56.82
2019-05-11T19:18:12.255Z,55.74
2019-05-11T19:20:45.638Z,55.78
2019-05-11T19:23:13.769Z,55.71
2019-05-11T19:25:43.762Z,56.21
2019-05-11T19:28:13.678Z,57.26
2019-05-11T19:30:43.551Z,56.42
2019-05-11T19:33:13.468Z,56.45
2019-05-11T19:35:43.339Z,57.07
2019-05-11T19:38:13.221Z,56.57
2019-05-11T19:40:43.112Z,55.69
2019-05-11T19:43:13.053Z,55.39
2019-05-11T19:45:43.084Z,55.76
2019-05-11T19:48:13.045Z,56.74
2019-05-11T19:50:42.945Z,55.96
2019-05-11T19:53:12.914Z,55.64
2019-05-11T19:55:42.840Z,54.79
2019-05-11T19:58:13.373Z,54.95
2019-05-11T20:00:43.350Z,55.69
2019-05-11T20:03:13.363Z,54.28
2019-05-11T20:05:43.386Z,53.97
2019-05-11T20:08:13.309Z,54.77
2019-05-11T20:10:43.223Z,54.22
2019-05-11T20:13:13.138Z,53.46
2019-05-11T20:15:48.317Z,53.71
2019-05-11T20:18:18.351Z,52.24
2019-05-11T20:20:48.585Z,51.83
2019-05-11T20:23:18.560Z,50.99
2019-05-11T20:25:48.570Z,49.89
2019-05-11T20:28:18.736Z,48.48
2019-05-11T20:30:48.839Z,48.29
2019-05-11T20:33:19.107Z,48.48
2019-05-11T20:35:49.018Z,47.30
2019-05-11T20:38:19.068Z,46.97
2019-05-11T20:40:49.172Z,47.29
2019-05-11T20:43:19.191Z,46.59
2019-05-11T20:45:49.377Z,45.14
2019-05-11T20:48:19.352Z,45.59
2019-05-11T20:50:49.959Z,44.14
2019-05-11T20:53:20.221Z,44.79
2019-05-11T20:55:58.434Z,44.56
2019-05-11T20:58:30.042Z,44.42
2019-05-11T21:01:10.833Z,44.49
2019-05-11T21:03:40.822Z,43.93
2019-05-11T21:06:10.743Z,42.91
2019-05-11T21:08:40.663Z,43.39
2019-05-11T21:11:10.682Z,43.46
2019-05-11T21:13:40.650Z,43.28
2019-05-11T21:16:10.647Z,43.41
2019-05-11T21:18:40.572Z,42.59
2019-05-11T21:21:10.495Z,42.60
2019-05-11T21:23:40.680Z,42.88
2019-05-11T21:26:10.823Z,43.46
2019-05-11T21:28:48.724Z,42.55
2019-05-11T21:31:19.000Z,42.05
2019-05-11T21:33:48.973Z,41.29
2019-05-11T21:36:18.937Z,41.46
2019-05-11T21:38:48.950Z,42.08
2019-05-11T21:41:19.412Z,41.78
2019-05-11T21:43:49.356Z,41.47
2019-05-11T21:46:19.307Z,40.39
2019-05-11T21:48:49.294Z,41.07
2019-05-11T21:51:19.178Z,40.74
2019-05-11T21:53:49.211Z,40.81
2019-05-11T21:56:19.114Z,40.31
2019-05-11T21:58:49.092Z,40.33
2019-05-11T22:01:20.519Z,40.51
2019-05-11T22:03:50.446Z,40.74
2019-05-11T22:06:20.396Z,41.14
2019-05-11T22:08:50.834Z,40.99
2019-05-11T22:11:20.915Z,41.21
2019-05-11T22:13:50.874Z,41.51
2019-05-11T22:16:20.784Z,40.83
2019-05-11T22:18:50.703Z,41.84
2019-05-11T22:21:20.612Z,42.91
2019-05-11T22:23:50.866Z,42.61
2019-05-11T22:26:21.131Z,42.60
2019-05-11T22:28:51.164Z,43.15
2019-05-11T22:31:21.060Z,43.25
2019-05-11T22:33:51.096Z,42.93
2019-05-11T22:36:21.123Z,43.06
2019-05-11T22:38:51.119Z,42.99
2019-05-11T22:41:21.246Z,43.07
2019-05-11T22:43:51.152Z,45.57
2019-05-11T22:46:21.087Z,43.32
2019-05-11T22:48:51.014Z,47.14
2019-05-11T22:51:21.034Z,53.66
2019-05-11T22:53:50.977Z,47.62
2019-05-11T22:56:20.947Z,47.24
2019-05-11T22:58:50.850Z,54.95
2019-05-11T23:01:20.907Z,44.29
2019-05-11T23:03:50.815Z,46.47
2019-05-11T23:06:20.755Z,54.12
2019-05-11T23:08:54.071Z,45.45
2019-05-11T23:11:22.783Z,50.72
2019-05-11T23:13:52.725Z,54.24
2019-05-11T23:16:22.666Z,45.26
2019-05-11T23:18:52.563Z,45.52
2019-05-11T23:21:22.520Z,45.47
2019-05-11T23:23:52.433Z,45.60
2019-05-11T23:26:22.443Z,45.59
2019-05-11T23:28:52.326Z,46.23
2019-05-11T23:31:22.658Z,46.20
2019-05-11T23:33:52.686Z,46.06
2019-05-11T23:36:22.642Z,46.73
2019-05-11T23:38:52.622Z,46.40
2019-05-11T23:41:24.877Z,47.32
2019-05-11T23:43:54.312Z,47.91
2019-05-11T23:46:24.276Z,48.33
2019-05-11T23:48:54.146Z,48.24
2019-05-11T23:51:24.163Z,48.20
2019-05-11T23:53:54.061Z,48.30
2019-05-11T23:56:24.258Z,48.31
2019-05-11T23:58:54.285Z,48.30
